Time;durP1;ratioP1;P1;durP2;ratioP2;P2;SDS_P1;SDS_P2;PMS_P1;PMS_P2;Temp;Humidity;BMP_temperature;BMP_pressure;BME280_temperature;BME280_humidity;BME280_pressure;Samples;Min_cycle;Max_cycle;Signal;HPM_P1;HPM_P2
2023/07/04 00:03:11;;;;;;;4.47;2.58;;;;;;;;;;8341223;28;20066;-59
2023/07/04 00:07:12;;;;;;;7.00;2.20;;;;;;;;;;8343815;28;20036;-60
2023/07/04 00:11:12;;;;;;;5.05;2.60;;;;;;;;;;8335799;28;20456;-59
2023/07/04 00:15:13;;;;;;;6.88;2.60;;;;;;;;;;8339879;28;20029;-60
2023/07/04 00:19:14;;;;;;;4.60;2.55;;;;;;;;;;8335302;28;20025;-60
2023/07/04 00:23:14;;;;;;;9.35;2.85;;;;;;;;;;8338154;28;20031;-59
2023/07/04 00:27:15;;;;;;;6.85;2.92;;;;;;;;;;8342713;28;20045;-59
2023/07/04 00:31:17;;;;;;;6.75;2.88;;;;;;;;;;8338430;28;20072;-59
2023/07/04 00:35:17;;;;;;;4.55;2.90;;;;;;;;;;8337910;28;20083;-59
2023/07/04 00:39:17;;;;;;;4.88;2.88;;;;;;;;;;8333723;28;20021;-59
2023/07/04 00:43:17;;;;;;;5.15;2.65;;;;;;;;;;8339485;28;20028;-59
2023/07/04 00:47:22;;;;;;;6.47;2.95;;;;;;;;;;8324942;28;20045;-59
2023/07/04 00:51:23;;;;;;;8.68;2.90;;;;;;;;;;8340677;28;20446;-60
2023/07/04 00:55:23;;;;;;;6.95;3.13;;;;;;;;;;8345481;28;20078;-59
2023/07/04 00:59:23;;;;;;;4.63;3.08;;;;;;;;;;8350540;28;20040;-59
2023/07/04 01:03:24;;;;;;;6.30;3.17;;;;;;;;;;8341758;28;20095;-59
2023/07/04 01:07:29;;;;;;;6.47;3.05;;;;;;;;;;8336193;28;20041;-59
2023/07/04 01:11:32;;;;;;;7.05;3.28;;;;;;;;;;8347564;28;20495;-59
2023/07/04 01:15:32;;;;;;;12.60;3.67;;;;;;;;;;8331573;28;20060;-60
2023/07/04 01:19:35;;;;;;;9.80;3.83;;;;;;;;;;8348016;28;20029;-59
2023/07/04 01:23:42;;;;;;;8.17;3.37;;;;;;;;;;8338913;28;20025;-60
2023/07/04 01:27:43;;;;;;;11.27;3.90;;;;;;;;;;8341029;28;20290;-59
2023/07/04 01:31:44;;;;;;;11.70;3.53;;;;;;;;;;8347745;28;20028;-59
2023/07/04 01:35:44;;;;;;;8.30;4.13;;;;;;;;;;8338141;28;20025;-59
2023/07/04 01:39:44;;;;;;;11.38;3.83;;;;;;;;;;8338981;28;20044;-59
2023/07/04 01:43:47;;;;;;;9.93;3.42;;;;;;;;;;8336301;28;20031;-60
2023/07/04 01:47:47;;;;;;;12.35;3.50;;;;;;;;;;8338094;28;20648;-59
2023/07/04 01:51:48;;;;;;;8.55;3.55;;;;;;;;;;8338069;28;20025;-59
2023/07/04 01:55:48;;;;;;;7.90;3.93;;;;;;;;;;8336462;28;20029;-59
2023/07/04 01:59:48;;;;;;;10.17;4.00;;;;;;;;;;8336261;28;20369;-59
2023/07/04 02:03:48;;;;;;;10.77;4.10;;;;;;;;;;8338040;28;20054;-60
2023/07/04 02:07:49;;;;;;;14.10;4.40;;;;;;;;;;8336554;28;20583;-60
2023/07/04 02:11:49;;;;;;;8.13;3.80;;;;;;;;;;8334361;28;20036;-60
2023/07/04 02:15:49;;;;;;;9.48;3.78;;;;;;;;;;8335266;28;20148;-67
2023/07/04 02:19:49;;;;;;;9.50;3.63;;;;;;;;;;8337162;28;20108;-59
2023/07/04 02:23:50;;;;;;;8.65;4.00;;;;;;;;;;8338827;28;20028;-59
2023/07/04 02:27:50;;;;;;;12.32;4.30;;;;;;;;;;8337742;28;20021;-59
2023/07/04 02:31:50;;;;;;;12.70;4.27;;;;;;;;;;8335364;28;20037;-59
2023/07/04 02:35:50;;;;;;;7.97;3.83;;;;;;;;;;8317361;28;20024;-59
2023/07/04 02:39:52;;;;;;;9.57;3.58;;;;;;;;;;8338206;28;20024;-59
2023/07/04 02:43:52;;;;;;;10.70;3.70;;;;;;;;;;8336509;28;20060;-60
2023/07/04 02:47:52;;;;;;;6.68;3.55;;;;;;;;;;8335975;28;20306;-60
2023/07/04 02:51:52;;;;;;;8.70;3.67;;;;;;;;;;8334963;28;20036;-59
2023/07/04 02:55:54;;;;;;;7.25;3.58;;;;;;;;;;8335595;28;20369;-59
2023/07/04 02:59:55;;;;;;;12.68;3.63;;;;;;;;;;8338113;28;20991;-59
2023/07/04 03:03:55;;;;;;;11.07;3.70;;;;;;;;;;8336681;28;20816;-60
2023/07/04 03:07:55;;;;;;;9.90;3.90;;;;;;;;;;8336872;28;20039;-59
2023/07/04 03:11:55;;;;;;;7.03;3.22;;;;;;;;;;8336194;28;20029;-59
2023/07/04 03:15:56;;;;;;;7.20;3.70;;;;;;;;;;8335371;28;20098;-59
2023/07/04 03:19:56;;;;;;;7.35;3.70;;;;;;;;;;8336464;28;20056;-59
2023/07/04 03:23:56;;;;;;;8.82;4.07;;;;;;;;;;8335545;28;20922;-60
2023/07/04 03:27:56;;;;;;;5.50;3.42;;;;;;;;;;8332627;28;20028;-60
2023/07/04 03:31:56;;;;;;;8.23;3.87;;;;;;;;;;8335781;28;20832;-59
2023/07/04 03:35:57;;;;;;;6.72;3.33;;;;;;;;;;8335013;28;20060;-60
2023/07/04 03:39:57;;;;;;;6.13;3.15;;;;;;;;;;8332977;28;20029;-60
2023/07/04 03:44:00;;;;;;;9.63;3.40;;;;;;;;;;8335584;28;20028;-59
2023/07/04 03:48:00;;;;;;;7.43;3.50;;;;;;;;;;8330313;28;20059;-59
2023/07/04 03:52:00;;;;;;;12.00;3.40;;;;;;;;;;8333448;28;20032;-60
2023/07/04 03:56:00;;;;;;;6.80;3.20;;;;;;;;;;8332084;28;20059;-60
2023/07/04 04:00:00;;;;;;;10.75;3.38;;;;;;;;;;8331459;28;20052;-59
2023/07/04 04:04:00;;;;;;;12.10;3.40;;;;;;;;;;8331778;28;20079;-59
2023/07/04 04:08:01;;;;;;;9.10;3.30;;;;;;;;;;8332231;28;20025;-59
2023/07/04 04:12:01;;;;;;;10.75;3.42;;;;;;;;;;8332713;28;20102;-59
2023/07/04 04:16:01;;;;;;;5.60;3.22;;;;;;;;;;8331834;28;20445;-59
2023/07/04 04:20:05;;;;;;;8.07;3.00;;;;;;;;;;8338569;28;20025;-59
2023/07/04 04:24:05;;;;;;;12.65;3.60;;;;;;;;;;8331913;28;20025;-60
2023/07/04 04:28:06;;;;;;;9.88;3.47;;;;;;;;;;8336529;28;20123;-60
2023/07/04 04:32:06;;;;;;;5.85;2.80;;;;;;;;;;8340450;28;20040;-59
2023/07/04 04:36:06;;;;;;;10.87;3.10;;;;;;;;;;8341475;28;20040;-60
2023/07/04 04:40:07;;;;;;;15.38;3.28;;;;;;;;;;8338800;28;20037;-59
2023/07/04 04:44:08;;;;;;;10.73;3.28;;;;;;;;;;8341029;28;20789;-60
2023/07/04 04:48:08;;;;;;;9.30;3.45;;;;;;;;;;8338574;28;20073;-60
2023/07/04 04:52:08;;;;;;;9.38;2.67;;;;;;;;;;8339097;28;20620;-59
2023/07/04 04:56:10;;;;;;;13.35;2.97;;;;;;;;;;8338551;28;20063;-59
2023/07/04 05:00:12;;;;;;;9.73;2.88;;;;;;;;;;8337711;28;20028;-60
2023/07/04 05:04:12;;;;;;;8.15;3.28;;;;;;;;;;8341275;28;20096;-59
2023/07/04 05:08:12;;;;;;;9.82;3.10;;;;;;;;;;8338120;28;20032;-59
2023/07/04 05:12:12;;;;;;;10.50;2.95;;;;;;;;;;8337481;28;20611;-59
2023/07/04 05:16:14;;;;;;;15.40;3.25;;;;;;;;;;8338171;28;20385;-60
2023/07/04 05:20:16;;;;;;;14.50;3.53;;;;;;;;;;8338092;28;20025;-59
2023/07/04 05:24:16;;;;;;;8.38;2.90;;;;;;;;;;8334936;28;20269;-59
2023/07/04 05:28:17;;;;;;;8.90;2.83;;;;;;;;;;8337164;28;20177;-59
2023/07/04 05:32:17;;;;;;;19.48;3.17;;;;;;;;;;8336027;28;20461;-59
2023/07/04 05:36:21;;;;;;;9.48;2.95;;;;;;;;;;8336839;28;20028;-59
2023/07/04 05:40:22;;;;;;;7.18;2.88;;;;;;;;;;8334933;28;20055;-59
2023/07/04 05:44:22;;;;;;;9.48;2.92;;;;;;;;;;8335967;28;20488;-59
2023/07/04 05:48:23;;;;;;;6.93;2.70;;;;;;;;;;8332628;28;20384;-60
2023/07/04 05:52:24;;;;;;;12.35;2.78;;;;;;;;;;8334135;28;20475;-59
2023/07/04 05:56:30;;;;;;;7.18;3.13;;;;;;;;;;8334774;28;20039;-60
2023/07/04 06:00:30;;;;;;;5.20;2.60;;;;;;;;;;8336886;28;20042;-60
2023/07/04 06:04:30;;;;;;;7.15;2.70;;;;;;;;;;8336705;28;20206;-60
2023/07/04 06:08:33;;;;;;;5.82;2.58;;;;;;;;;;8335347;28;20496;-59
2023/07/04 06:12:34;;;;;;;9.27;2.53;;;;;;;;;;8333488;28;20032;-59
2023/07/04 06:16:35;;;;;;;6.65;2.40;;;;;;;;;;8332933;28;20044;-59
2023/07/04 06:20:35;;;;;;;9.13;2.83;;;;;;;;;;8334799;28;20445;-59
2023/07/04 06:24:36;;;;;;;8.82;3.15;;;;;;;;;;8337565;28;20851;-60
2023/07/04 06:28:37;;;;;;;7.00;2.63;;;;;;;;;;8334929;28;20111;-60
2023/07/04 06:32:37;;;;;;;6.60;2.58;;;;;;;;;;8334521;28;20040;-59
2023/07/04 06:36:37;;;;;;;9.45;2.90;;;;;;;;;;8333630;28;20037;-59
2023/07/04 06:40:37;;;;;;;10.40;2.80;;;;;;;;;;8333468;28;20021;-59
2023/07/04 06:44:38;;;;;;;4.97;2.60;;;;;;;;;;8333490;28;20047;-60
2023/07/04 06:48:38;;;;;;;5.50;2.50;;;;;;;;;;8331004;28;20059;-60
2023/07/04 06:52:39;;;;;;;10.07;2.43;;;;;;;;;;8336107;28;20025;-59
2023/07/04 06:56:39;;;;;;;5.32;2.70;;;;;;;;;;8332736;28;20029;-59
2023/07/04 07:00:39;;;;;;;5.97;2.40;;;;;;;;;;8332025;28;20926;-60
2023/07/04 07:04:40;;;;;;;5.07;2.10;;;;;;;;;;8334025;28;20745;-59
2023/07/04 07:08:40;;;;;;;4.50;2.40;;;;;;;;;;8335077;28;20804;-60
2023/07/04 07:12:40;;;;;;;5.18;2.75;;;;;;;;;;8335299;28;20056;-59
2023/07/04 07:16:40;;;;;;;9.27;2.88;;;;;;;;;;8334297;28;20037;-59
2023/07/04 07:20:41;;;;;;;5.03;2.57;;;;;;;;;;8333489;28;20110;-59
2023/07/04 07:24:41;;;;;;;6.17;2.60;;;;;;;;;;8300692;28;20027;-60
2023/07/04 07:28:42;;;;;;;7.10;2.70;;;;;;;;;;8334683;28;20106;-60
2023/07/04 07:32:42;;;;;;;7.43;2.65;;;;;;;;;;8332913;28;20048;-60
2023/07/04 07:36:43;;;;;;;8.10;2.60;;;;;;;;;;8330095;28;20059;-59
2023/07/04 07:40:48;;;;;;;5.72;2.58;;;;;;;;;;8329722;28;20266;-60
2023/07/04 07:44:49;;;;;;;5.35;2.50;;;;;;;;;;8326815;28;20516;-60
2023/07/04 07:48:49;;;;;;;6.25;2.80;;;;;;;;;;8328953;28;20434;-60
2023/07/04 07:52:49;;;;;;;6.35;2.42;;;;;;;;;;8332235;28;21775;-60
2023/07/04 07:56:50;;;;;;;6.97;2.83;;;;;;;;;;8333367;28;20029;-60
2023/07/04 08:00:50;;;;;;;7.70;2.60;;;;;;;;;;8330804;28;20136;-61
2023/07/04 08:04:50;;;;;;;5.55;2.60;;;;;;;;;;8334592;28;20282;-60
2023/07/04 08:08:51;;;;;;;3.80;2.40;;;;;;;;;;8340798;28;20136;-61
2023/07/04 08:12:51;;;;;;;5.97;2.53;;;;;;;;;;8340022;28;20032;-60
2023/07/04 08:16:52;;;;;;;6.47;2.70;;;;;;;;;;8337929;28;20097;-60
2023/07/04 08:21:00;;;;;;;5.53;2.40;;;;;;;;;;8339273;28;20025;-60
2023/07/04 08:25:00;;;;;;;4.85;2.60;;;;;;;;;;8339944;28;20029;-60
2023/07/04 08:29:00;;;;;;;4.15;2.40;;;;;;;;;;8337925;28;20031;-60
2023/07/04 08:33:00;;;;;;;5.82;2.63;;;;;;;;;;8337566;28;20128;-60
2023/07/04 08:37:00;;;;;;;4.65;2.40;;;;;;;;;;8336846;28;20025;-60
2023/07/04 08:41:01;;;;;;;5.93;2.60;;;;;;;;;;8340315;28;20083;-59
2023/07/04 08:45:02;;;;;;;4.97;2.63;;;;;;;;;;8340950;28;20332;-60
2023/07/04 08:49:02;;;;;;;4.95;2.45;;;;;;;;;;8337506;28;20503;-60
2023/07/04 08:53:10;;;;;;;4.00;2.30;;;;;;;;;;8320471;28;20063;-60
2023/07/04 08:57:13;;;;;;;9.15;2.78;;;;;;;;;;8337944;28;20033;-60
2023/07/04 09:01:18;;;;;;;3.17;2.22;;;;;;;;;;8336157;28;20037;-60
2023/07/04 09:05:24;;;;;;;3.60;2.47;;;;;;;;;;8337929;28;20024;-60
2023/07/04 09:09:29;;;;;;;5.20;2.30;;;;;;;;;;8337640;28;20028;-61
2023/07/04 09:13:32;;;;;;;4.97;2.78;;;;;;;;;;8335421;28;20112;-60
2023/07/04 09:17:35;;;;;;;4.25;2.40;;;;;;;;;;8334264;28;20064;-60
2023/07/04 09:21:39;;;;;;;5.70;2.47;;;;;;;;;;8336024;28;20028;-60
2023/07/04 09:25:39;;;;;;;4.45;2.45;;;;;;;;;;8336441;28;20056;-60
2023/07/04 09:29:40;;;;;;;3.80;2.47;;;;;;;;;;8339823;28;20108;-60
2023/07/04 09:33:40;;;;;;;4.60;2.63;;;;;;;;;;8337773;28;20048;-60
2023/07/04 09:37:57;;;;;;;4.72;2.65;;;;;;;;;;8336032;28;20035;-60
2023/07/04 09:41:59;;;;;;;6.60;2.83;;;;;;;;;;8332120;28;20029;-60
2023/07/04 09:46:17;;;;;;;6.50;2.70;;;;;;;;;;8334590;28;20131;-60
2023/07/04 09:50:25;;;;;;;5.93;2.42;;;;;;;;;;8338023;28;20151;-60
2023/07/04 09:54:25;;;;;;;6.10;2.80;;;;;;;;;;8336791;28;20021;-60
2023/07/04 09:58:28;;;;;;;5.55;2.80;;;;;;;;;;8337109;28;20477;-60
2023/07/04 10:02:33;;;;;;;5.15;2.80;;;;;;;;;;8333559;28;20245;-61
2023/07/04 10:06:36;;;;;;;5.88;2.70;;;;;;;;;;8336742;28;20032;-60
2023/07/04 10:10:40;;;;;;;5.15;2.80;;;;;;;;;;8333887;28;20021;-60
2023/07/04 10:14:45;;;;;;;4.55;2.83;;;;;;;;;;8333369;28;20112;-60
2023/07/04 10:18:45;;;;;;;4.20;2.83;;;;;;;;;;8316483;28;20029;-60
2023/07/04 10:22:51;;;;;;;5.53;2.55;;;;;;;;;;8336537;28;20080;-60
2023/07/04 10:26:54;;;;;;;3.90;2.67;;;;;;;;;;8333161;28;20048;-60
2023/07/04 10:30:59;;;;;;;3.90;2.55;;;;;;;;;;8333230;28;20037;-60
2023/07/04 10:34:59;;;;;;;5.88;2.80;;;;;;;;;;8337360;28;20115;-60
2023/07/04 10:39:01;;;;;;;5.95;2.67;;;;;;;;;;8333928;28;20029;-60
2023/07/04 10:43:05;;;;;;;3.75;2.83;;;;;;;;;;8333406;28;20113;-60
2023/07/04 10:47:10;;;;;;;3.60;2.78;;;;;;;;;;8327054;28;20037;-60
2023/07/04 10:51:17;;;;;;;3.08;2.67;;;;;;;;;;8335092;28;20033;-60
2023/07/04 10:55:22;;;;;;;4.40;2.80;;;;;;;;;;8334334;28;20040;-60
2023/07/04 10:59:26;;;;;;;3.00;2.28;;;;;;;;;;8318038;28;20131;-60
2023/07/04 11:03:36;;;;;;;4.63;2.60;;;;;;;;;;8333829;28;20167;-60
2023/07/04 11:07:39;;;;;;;4.68;2.67;;;;;;;;;;8332447;28;20074;-60
2023/07/04 11:11:41;;;;;;;4.75;2.55;;;;;;;;;;8333923;28;20694;-60
2023/07/04 11:15:42;;;;;;;4.20;2.88;;;;;;;;;;8333522;28;20036;-60
2023/07/04 11:20:12;;;;;;;4.03;3.00;;;;;;;;;;8331587;28;20429;-60
2023/07/04 11:24:18;;;;;;;3.88;2.80;;;;;;;;;;8334949;28;20039;-61
2023/07/04 11:28:36;;;;;;;3.88;2.90;;;;;;;;;;8333736;28;20078;-60
2023/07/04 11:32:37;;;;;;;7.15;3.00;;;;;;;;;;8328719;28;20073;-60
2023/07/04 11:36:50;;;;;;;4.87;2.80;;;;;;;;;;8330501;28;20101;-61
2023/07/04 11:40:54;;;;;;;5.68;2.80;;;;;;;;;;8333058;28;20469;-60
2023/07/04 11:45:00;;;;;;;5.55;3.15;;;;;;;;;;8332213;28;20219;-60
2023/07/04 11:49:00;;;;;;;4.85;2.67;;;;;;;;;;8328448;28;20129;-60
2023/07/04 11:53:02;;;;;;;3.13;2.73;;;;;;;;;;8319935;28;20068;-60
2023/07/04 11:57:04;;;;;;;4.28;2.75;;;;;;;;;;8331129;28;20060;-60
2023/07/04 12:01:05;;;;;;;4.40;2.88;;;;;;;;;;8330929;28;20037;-60
2023/07/04 12:05:26;;;;;;;3.97;3.03;;;;;;;;;;8330618;28;20116;-60
2023/07/04 12:09:28;;;;;;;7.00;2.97;;;;;;;;;;8329130;28;20414;-61
2023/07/04 12:13:29;;;;;;;3.00;2.70;;;;;;;;;;8327230;28;20036;-60
2023/07/04 12:17:30;;;;;;;5.87;3.43;;;;;;;;;;8324931;28;20029;-60
2023/07/04 12:21:32;;;;;;;4.83;2.70;;;;;;;;;;8329805;28;20286;-60
2023/07/04 12:25:37;;;;;;;3.45;2.70;;;;;;;;;;8330440;28;20028;-60
2023/07/04 12:29:44;;;;;;;6.78;3.03;;;;;;;;;;8331189;28;20810;-60
2023/07/04 12:33:45;;;;;;;5.22;2.90;;;;;;;;;;8328753;28;20270;-60
2023/07/04 12:37:50;;;;;;;5.13;2.63;;;;;;;;;;8326715;28;20146;-60
2023/07/04 12:41:51;;;;;;;7.90;2.83;;;;;;;;;;8332864;28;20028;-60
2023/07/04 12:45:51;;;;;;;3.97;2.77;;;;;;;;;;8331716;28;20117;-60
2023/07/04 12:49:52;;;;;;;5.18;2.85;;;;;;;;;;8331302;28;20457;-60
2023/07/04 12:53:53;;;;;;;7.30;3.00;;;;;;;;;;8332769;28;20025;-60
2023/07/04 12:57:54;;;;;;;5.70;3.08;;;;;;;;;;8333750;28;20747;-60
2023/07/04 13:01:54;;;;;;;7.18;2.95;;;;;;;;;;8333051;28;20051;-60
2023/07/04 13:05:55;;;;;;;7.00;3.30;;;;;;;;;;8332379;28;20416;-60
2023/07/04 13:09:55;;;;;;;4.78;2.88;;;;;;;;;;8335724;28;20060;-60
2023/07/04 13:14:05;;;;;;;5.95;3.15;;;;;;;;;;8331303;28;20021;-60
2023/07/04 13:18:06;;;;;;;5.93;3.30;;;;;;;;;;8333742;28;20061;-61
2023/07/04 13:22:14;;;;;;;5.93;3.30;;;;;;;;;;8334966;28;20761;-60
2023/07/04 13:26:23;;;;;;;7.15;3.58;;;;;;;;;;8333100;28;20025;-60
2023/07/04 13:30:28;;;;;;;5.60;3.40;;;;;;;;;;8333765;28;20262;-60
2023/07/04 13:34:29;;;;;;;5.93;3.47;;;;;;;;;;8334591;28;20040;-60
2023/07/04 13:38:30;;;;;;;6.38;4.10;;;;;;;;;;8336625;28;20012;-60
2023/07/04 13:42:30;;;;;;;8.07;3.88;;;;;;;;;;8335825;28;20051;-60
2023/07/04 13:46:30;;;;;;;7.82;4.70;;;;;;;;;;8335013;28;20089;-60
2023/07/04 13:50:31;;;;;;;6.97;4.80;;;;;;;;;;8333687;28;20040;-60
2023/07/04 13:54:32;;;;;;;6.30;4.07;;;;;;;;;;8335938;28;20043;-60
2023/07/04 13:58:33;;;;;;;7.45;3.92;;;;;;;;;;8336361;28;20124;-60
2023/07/04 14:02:34;;;;;;;;;;;;;;;;;;8337341;28;20700;-60
2023/07/04 14:06:34;;;;;;;8.43;4.20;;;;;;;;;;8334788;28;19916;-60
2023/07/04 14:10:36;;;;;;;4.75;3.88;;;;;;;;;;8335609;28;20202;-60
2023/07/04 14:14:36;;;;;;;6.90;4.35;;;;;;;;;;8337427;28;20020;-60
2023/07/04 14:18:36;;;;;;;6.47;4.13;;;;;;;;;;8316327;28;20044;-60
2023/07/04 14:22:36;;;;;;;6.87;3.93;;;;;;;;;;8336141;28;20032;-60
2023/07/04 14:26:37;;;;;;;7.33;4.07;;;;;;;;;;8333089;28;20268;-60
2023/07/04 14:30:41;;;;;;;7.18;4.07;;;;;;;;;;8336749;28;20039;-60
2023/07/04 14:34:41;;;;;;;7.75;4.57;;;;;;;;;;8336197;28;20035;-60
2023/07/04 14:38:41;;;;;;;6.22;4.18;;;;;;;;;;8335581;28;20024;-60
2023/07/04 14:42:41;;;;;;;6.78;3.97;;;;;;;;;;8334586;28;20017;-60
2023/07/04 14:46:41;;;;;;;6.13;4.10;;;;;;;;;;8335902;28;20044;-60
2023/07/04 14:50:42;;;;;;;4.97;3.95;;;;;;;;;;8333974;28;20025;-60
2023/07/04 14:54:42;;;;;;;5.17;4.03;;;;;;;;;;8335191;28;20387;-60
2023/07/04 14:58:43;;;;;;;7.57;4.10;;;;;;;;;;8331622;28;20039;-60
2023/07/04 15:02:43;;;;;;;4.90;3.67;;;;;;;;;;8313782;28;20029;-60
2023/07/04 15:06:43;;;;;;;5.40;4.15;;;;;;;;;;8334933;28;20455;-60
2023/07/04 15:10:44;;;;;;;5.60;3.80;;;;;;;;;;8334359;28;20473;-60
2023/07/04 15:14:45;;;;;;;4.50;3.87;;;;;;;;;;8334007;28;20029;-60
2023/07/04 15:18:45;;;;;;;5.80;4.03;;;;;;;;;;8330767;28;20047;-60
2023/07/04 15:22:46;;;;;;;5.87;4.00;;;;;;;;;;8334521;28;20028;-60
2023/07/04 15:26:46;;;;;;;5.18;3.65;;;;;;;;;;8334032;28;20098;-60
2023/07/04 15:30:47;;;;;;;8.80;3.60;;;;;;;;;;8334231;28;20045;-60
2023/07/04 15:34:47;;;;;;;7.47;3.47;;;;;;;;;;8336306;28;20037;-60
2023/07/04 15:38:47;;;;;;;6.78;3.90;;;;;;;;;;8330459;28;20028;-60
2023/07/04 15:42:50;;;;;;;6.07;3.50;;;;;;;;;;8335151;28;20043;-60
2023/07/04 15:46:50;;;;;;;;;;;;;;;;;;8333056;28;20558;-60
2023/07/04 15:50:55;;;;;;;4.40;3.05;;;;;;;;;;8330943;28;20035;-60
2023/07/04 15:54:55;;;;;;;5.13;2.90;;;;;;;;;;8332168;28;20025;-60
2023/07/04 15:58:55;;;;;;;6.20;2.85;;;;;;;;;;8332203;28;20045;-60
2023/07/04 16:02:55;;;;;;;4.68;3.05;;;;;;;;;;8333734;28;20264;-60
2023/07/04 16:06:57;;;;;;;6.90;3.15;;;;;;;;;;8333612;28;20490;-60
2023/07/04 16:10:58;;;;;;;8.30;3.27;;;;;;;;;;8332285;28;20036;-60
2023/07/04 16:14:58;;;;;;;4.95;2.90;;;;;;;;;;8339312;28;20579;-60
2023/07/04 16:18:59;;;;;;;4.17;3.40;;;;;;;;;;8339459;28;20693;-60
2023/07/04 16:22:59;;;;;;;5.05;2.88;;;;;;;;;;8339272;28;20334;-60
2023/07/04 16:26:59;;;;;;;4.95;3.17;;;;;;;;;;8338819;28;20617;-60
2023/07/04 16:31:05;;;;;;;5.07;2.97;;;;;;;;;;8339138;28;20128;-60
2023/07/04 16:35:05;;;;;;;7.50;3.10;;;;;;;;;;8340131;28;20085;-60
2023/07/04 16:39:05;;;;;;;3.40;2.75;;;;;;;;;;8338678;28;20031;-60
2023/07/04 16:43:06;;;;;;;5.50;3.15;;;;;;;;;;8336854;28;20040;-60
2023/07/04 16:47:06;;;;;;;5.22;2.95;;;;;;;;;;8336831;28;20504;-60
2023/07/04 16:51:06;;;;;;;8.07;3.00;;;;;;;;;;8339562;28;20025;-60
2023/07/04 16:55:07;;;;;;;4.43;2.80;;;;;;;;;;8338532;28;20087;-60
2023/07/04 16:59:07;;;;;;;3.28;2.60;;;;;;;;;;8339481;28;20144;-60
2023/07/04 17:03:07;;;;;;;5.33;3.10;;;;;;;;;;8338810;28;20036;-60
2023/07/04 17:07:07;;;;;;;5.38;3.00;;;;;;;;;;8339499;28;20460;-60
2023/07/04 17:11:09;;;;;;;4.47;2.60;;;;;;;;;;8340437;28;20056;-60
2023/07/04 17:15:10;;;;;;;3.60;2.67;;;;;;;;;;8336214;28;20034;-60
2023/07/04 17:19:10;;;;;;;4.73;3.03;;;;;;;;;;8338522;28;20128;-60
2023/07/04 17:23:11;;;;;;;3.05;2.42;;;;;;;;;;8319995;28;20321;-60
2023/07/04 17:27:11;;;;;;;6.28;2.83;;;;;;;;;;8338033;28;20792;-60
2023/07/04 17:31:11;;;;;;;4.53;2.70;;;;;;;;;;8338381;28;20040;-60
2023/07/04 17:35:12;;;;;;;4.20;2.63;;;;;;;;;;8336549;28;20039;-60
2023/07/04 17:39:12;;;;;;;3.88;2.60;;;;;;;;;;8331784;28;20328;-60
2023/07/04 17:43:12;;;;;;;3.33;2.63;;;;;;;;;;8333018;28;20982;-60
2023/07/04 17:47:12;;;;;;;5.80;2.70;;;;;;;;;;8334596;28;20041;-60
2023/07/04 17:51:14;;;;;;;8.40;3.28;;;;;;;;;;8332202;28;20794;-60
2023/07/04 17:55:14;;;;;;;6.80;2.75;;;;;;;;;;8329538;28;20407;-60
2023/07/04 17:59:15;;;;;;;7.00;4.95;;;;;;;;;;8332159;28;20126;-60
2023/07/04 18:03:15;;;;;;;6.13;2.93;;;;;;;;;;8328536;28;20060;-60
2023/07/04 18:07:15;;;;;;;4.20;2.92;;;;;;;;;;8324780;28;20143;-60
2023/07/04 18:11:17;;;;;;;5.88;2.70;;;;;;;;;;8329116;28;20021;-60
2023/07/04 18:15:17;;;;;;;5.68;2.80;;;;;;;;;;8328683;28;20048;-60
2023/07/04 18:19:17;;;;;;;5.57;2.65;;;;;;;;;;8324233;28;20206;-60
2023/07/04 18:23:18;;;;;;;5.23;2.77;;;;;;;;;;8327785;28;20448;-60
2023/07/04 18:27:18;;;;;;;4.22;2.85;;;;;;;;;;8326760;28;20275;-60
2023/07/04 18:31:19;;;;;;;8.05;2.50;;;;;;;;;;8327351;28;20473;-60
2023/07/04 18:35:20;;;;;;;5.22;2.50;;;;;;;;;;8323363;28;20079;-60
2023/07/04 18:39:20;;;;;;;3.45;1.95;;;;;;;;;;8326376;28;20028;-60
2023/07/04 18:43:20;;;;;;;4.50;2.00;;;;;;;;;;8327377;28;20139;-60
2023/07/04 18:47:20;;;;;;;4.05;1.80;;;;;;;;;;8326189;28;20595;-60
2023/07/04 18:51:24;;;;;;;2.08;1.70;;;;;;;;;;8324897;28;21062;-60
2023/07/04 18:55:24;;;;;;;3.67;1.80;;;;;;;;;;8326308;28;20037;-60
2023/07/04 18:59:24;;;;;;;2.20;1.80;;;;;;;;;;8324915;28;20098;-60
2023/07/04 19:03:24;;;;;;;7.43;1.50;;;;;;;;;;8324267;28;20040;-59
2023/07/04 19:07:25;;;;;;;3.67;1.90;;;;;;;;;;8323018;28;20476;-59
2023/07/04 19:11:26;;;;;;;2.03;1.40;;;;;;;;;;8323090;28;20068;-60
2023/07/04 19:15:26;;;;;;;2.90;1.60;;;;;;;;;;8324963;28;20465;-60
2023/07/04 19:19:31;;;;;;;2.63;1.60;;;;;;;;;;8324061;28;20426;-60
2023/07/04 19:23:31;;;;;;;2.58;1.60;;;;;;;;;;8324630;28;20029;-60
2023/07/04 19:27:31;;;;;;;3.60;1.48;;;;;;;;;;8322925;28;20643;-60
2023/07/04 19:31:32;;;;;;;3.83;1.63;;;;;;;;;;8322714;28;20483;-59
2023/07/04 19:35:32;;;;;;;3.92;1.70;;;;;;;;;;8324678;28;20946;-59
2023/07/04 19:39:33;;;;;;;6.30;1.60;;;;;;;;;;8327107;28;20025;-59
2023/07/04 19:43:33;;;;;;;3.10;1.65;;;;;;;;;;8323224;28;20369;-60
2023/07/04 19:47:33;;;;;;;3.80;1.60;;;;;;;;;;8324377;28;20250;-59
2023/07/04 19:51:34;;;;;;;2.63;1.60;;;;;;;;;;8331512;28;20032;-59
2023/07/04 19:55:34;;;;;;;2.15;1.52;;;;;;;;;;8329212;28;20021;-60
2023/07/04 19:59:35;;;;;;;3.40;1.70;;;;;;;;;;8329773;28;20521;-60
2023/07/04 20:03:35;;;;;;;5.25;1.88;;;;;;;;;;8330156;28;20117;-60
2023/07/04 20:07:36;;;;;;;2.13;1.35;;;;;;;;;;8330000;28;20025;-59
2023/07/04 20:11:36;;;;;;;2.03;1.55;;;;;;;;;;8331014;28;20521;-59
2023/07/04 20:15:39;;;;;;;2.25;1.40;;;;;;;;;;8332083;28;20040;-59
2023/07/04 20:19:39;;;;;;;2.20;1.50;;;;;;;;;;8333224;28;20165;-59
2023/07/04 20:23:40;;;;;;;1.98;1.50;;;;;;;;;;8336481;28;20032;-59
2023/07/04 20:27:40;;;;;;;2.75;1.30;;;;;;;;;;8326805;28;20017;-59
2023/07/04 20:31:42;;;;;;;7.00;1.48;;;;;;;;;;8339217;28;20041;-60
2023/07/04 20:35:42;;;;;;;5.32;1.77;;;;;;;;;;8330558;28;20020;-59
2023/07/04 20:39:42;;;;;;;1.90;1.27;;;;;;;;;;8333986;28;20036;-59
2023/07/04 20:43:42;;;;;;;2.85;1.35;;;;;;;;;;8330077;28;20094;-59
2023/07/04 20:47:43;;;;;;;3.35;1.35;;;;;;;;;;8332183;28;20617;-60
2023/07/04 20:51:43;;;;;;;2.60;1.30;;;;;;;;;;8334601;28;20148;-60
2023/07/04 20:55:44;;;;;;;1.88;1.55;;;;;;;;;;8331755;28;20063;-59
2023/07/04 20:59:45;;;;;;;2.22;1.17;;;;;;;;;;8331858;28;20028;-59
2023/07/04 21:03:45;;;;;;;3.58;1.10;;;;;;;;;;8335146;28;20755;-60
2023/07/04 21:07:49;;;;;;;1.40;1.08;;;;;;;;;;8330147;28;20028;-59
2023/07/04 21:11:49;;;;;;;1.20;1.10;;;;;;;;;;8331463;28;20053;-59
2023/07/04 21:15:50;;;;;;;2.28;1.13;;;;;;;;;;8333839;28;20143;-59
2023/07/04 21:19:50;;;;;;;3.10;1.13;;;;;;;;;;8339954;28;20672;-59
2023/07/04 21:23:50;;;;;;;0.90;0.90;;;;;;;;;;8338242;28;20534;-59
2023/07/04 21:27:50;;;;;;;3.72;1.00;;;;;;;;;;8339931;28;20167;-59
2023/07/04 21:31:50;;;;;;;1.58;1.00;;;;;;;;;;8336218;28;20040;-59
2023/07/04 21:35:50;;;;;;;1.08;1.00;;;;;;;;;;8339078;28;20040;-59
2023/07/04 21:39:51;;;;;;;1.80;1.00;;;;;;;;;;8335858;28;20025;-60
2023/07/04 21:43:51;;;;;;;1.17;1.00;;;;;;;;;;8339907;28;20462;-59
2023/07/04 21:47:52;;;;;;;0.88;0.88;;;;;;;;;;8318140;28;20040;-59
2023/07/04 21:51:52;;;;;;;1.17;1.02;;;;;;;;;;8339260;28;20048;-59
2023/07/04 21:55:52;;;;;;;2.17;1.00;;;;;;;;;;8338526;28;20048;-59
2023/07/04 21:59:53;;;;;;;1.60;1.00;;;;;;;;;;8339178;28;20029;-60
2023/07/04 22:03:53;;;;;;;1.33;1.20;;;;;;;;;;8337416;28;20502;-60
2023/07/04 22:07:53;;;;;;;1.63;1.10;;;;;;;;;;8338533;28;20037;-59
2023/07/04 22:11:53;;;;;;;3.17;1.08;;;;;;;;;;8336978;28;20090;-59
2023/07/04 22:15:53;;;;;;;1.17;1.08;;;;;;;;;;8339951;28;20557;-59
2023/07/04 22:19:54;;;;;;;3.13;1.17;;;;;;;;;;8338389;28;20035;-59
2023/07/04 22:23:56;;;;;;;0.85;0.85;;;;;;;;;;8338100;28;20048;-59
2023/07/04 22:27:56;;;;;;;1.17;1.00;;;;;;;;;;8336258;28;20031;-59
2023/07/04 22:31:56;;;;;;;2.28;0.93;;;;;;;;;;8336047;28;20386;-59
2023/07/04 22:35:56;;;;;;;1.10;1.00;;;;;;;;;;8332359;28;20027;-59
2023/07/04 22:39:56;;;;;;;4.07;1.00;;;;;;;;;;8336985;28;20020;-59
2023/07/04 22:43:57;;;;;;;1.60;1.05;;;;;;;;;;8338101;28;20035;-59
2023/07/04 22:47:57;;;;;;;1.10;1.00;;;;;;;;;;8337638;28;20033;-59
2023/07/04 22:51:57;;;;;;;1.52;1.00;;;;;;;;;;8337907;28;20024;-59
2023/07/04 22:56:02;;;;;;;0.90;0.90;;;;;;;;;;8333788;28;20060;-59
2023/07/04 23:00:04;;;;;;;1.05;1.00;;;;;;;;;;8337414;28;20079;-59
2023/07/04 23:04:04;;;;;;;0.80;0.80;;;;;;;;;;8332972;28;20041;-60
2023/07/04 23:08:06;;;;;;;1.60;1.00;;;;;;;;;;8337985;28;20020;-60
2023/07/04 23:12:06;;;;;;;1.10;1.00;;;;;;;;;;8336303;28;20154;-59
2023/07/04 23:16:06;;;;;;;1.25;0.90;;;;;;;;;;8332256;28;20162;-60
2023/07/04 23:20:07;;;;;;;0.75;0.75;;;;;;;;;;8337748;28;20802;-59
2023/07/04 23:24:08;;;;;;;1.02;0.80;;;;;;;;;;8335359;28;20025;-59
2023/07/04 23:28:08;;;;;;;1.23;0.90;;;;;;;;;;8334844;28;20033;-59
2023/07/04 23:32:09;;;;;;;2.38;0.85;;;;;;;;;;8334492;28;20805;-59
2023/07/04 23:36:09;;;;;;;2.00;0.70;;;;;;;;;;8333304;28;20029;-58
2023/07/04 23:40:10;;;;;;;2.78;0.90;;;;;;;;;;8336823;28;20021;-58
2023/07/04 23:44:10;;;;;;;2.77;1.10;;;;;;;;;;8338100;28;20348;-58
2023/07/04 23:48:10;;;;;;;2.67;1.10;;;;;;;;;;8332834;28;20095;-58
2023/07/04 23:52:10;;;;;;;4.38;1.08;;;;;;;;;;8334938;28;21286;-58
2023/07/04 23:56:10;;;;;;;2.10;0.90;;;;;;;;;;8334565;28;20037;-58
